sensor_id;sensor_type;location;lat;lon;timestamp;pressure;altitude;pressure_sealevel;temperature;humidity
41250;BME280;26984;59.928;30.306;2023-04-16T00:00:35;102686.97;;;6.42;34.35
41250;BME280;26984;59.928;30.306;2023-04-16T00:03:02;102701.63;;;6.38;34.56
41250;BME280;26984;59.928;30.306;2023-04-16T00:05:30;102690.91;;;6.38;34.71
41250;BME280;26984;59.928;30.306;2023-04-16T00:07:57;102696.28;;;6.38;34.67
41250;BME280;26984;59.928;30.306;2023-04-16T00:10:26;102695.28;;;6.30;34.60
41250;BME280;26984;59.928;30.306;2023-04-16T00:12:54;102701.47;;;6.30;34.97
41250;BME280;26984;59.928;30.306;2023-04-16T00:15:21;102690.47;;;6.23;34.59
41250;BME280;26984;59.928;30.306;2023-04-16T00:17:48;102689.47;;;6.24;34.93
41250;BME280;26984;59.928;30.306;2023-04-16T00:20:16;102685.50;;;6.19;35.08
41250;BME280;26984;59.928;30.306;2023-04-16T00:22:45;102685.22;;;6.12;35.20
41250;BME280;26984;59.928;30.306;2023-04-16T00:25:12;102682.69;;;6.11;34.85
41250;BME280;26984;59.928;30.306;2023-04-16T00:27:41;102685.09;;;6.14;35.22
41250;BME280;26984;59.928;30.306;2023-04-16T00:30:09;102677.31;;;6.11;35.32
41250;BME280;26984;59.928;30.306;2023-04-16T00:32:37;102683.97;;;6.16;35.35
41250;BME280;26984;59.928;30.306;2023-04-16T00:35:04;102684.50;;;6.10;35.19
41250;BME280;26984;59.928;30.306;2023-04-16T00:37:32;102675.50;;;6.11;35.16
41250;BME280;26984;59.928;30.306;2023-04-16T00:40:00;102675.06;;;6.06;35.28
41250;BME280;26984;59.928;30.306;2023-04-16T00:42:27;102675.06;;;6.06;35.33
41250;BME280;26984;59.928;30.306;2023-04-16T00:44:56;102684.34;;;6.02;35.59
41250;BME280;26984;59.928;30.306;2023-04-16T00:47:24;102678.69;;;5.95;35.34
41250;BME280;26984;59.928;30.306;2023-04-16T00:49:52;102686.22;;;5.90;35.28
41250;BME280;26984;59.928;30.306;2023-04-16T00:52:20;102690.06;;;5.88;35.44
41250;BME280;26984;59.928;30.306;2023-04-16T00:54:48;102683.97;;;5.86;35.63
41250;BME280;26984;59.928;30.306;2023-04-16T00:57:16;102682.28;;;5.85;36.23
41250;BME280;26984;59.928;30.306;2023-04-16T00:59:46;102685.38;;;5.80;35.75
41250;BME280;26984;59.928;30.306;2023-04-16T01:02:15;102676.38;;;5.81;35.73
41250;BME280;26984;59.928;30.306;2023-04-16T01:04:42;102677.06;;;5.83;36.21
41250;BME280;26984;59.928;30.306;2023-04-16T01:07:10;102679.63;;;5.85;36.06
41250;BME280;26984;59.928;30.306;2023-04-16T01:09:37;102678.00;;;5.72;36.09
41250;BME280;26984;59.928;30.306;2023-04-16T01:12:05;102688.00;;;5.70;36.18
41250;BME280;26984;59.928;30.306;2023-04-16T01:14:32;102684.50;;;5.70;36.21
41250;BME280;26984;59.928;30.306;2023-04-16T01:17:02;102675.31;;;5.72;36.40
41250;BME280;26984;59.928;30.306;2023-04-16T01:19:31;102677.56;;;5.67;36.09
41250;BME280;26984;59.928;30.306;2023-04-16T01:22:03;102678.41;;;5.68;36.51
41250;BME280;26984;59.928;30.306;2023-04-16T01:24:30;102671.47;;;5.56;37.02
41250;BME280;26984;59.928;30.306;2023-04-16T01:26:58;102677.09;;;5.52;36.78
41250;BME280;26984;59.928;30.306;2023-04-16T01:29:25;102678.34;;;5.48;36.77
41250;BME280;26984;59.928;30.306;2023-04-16T01:31:56;102674.09;;;5.46;36.86
41250;BME280;26984;59.928;30.306;2023-04-16T01:34:30;102676.84;;;5.35;37.25
41250;BME280;26984;59.928;30.306;2023-04-16T01:36:58;102672.59;;;5.32;37.43
41250;BME280;26984;59.928;30.306;2023-04-16T01:39:28;102669.81;;;5.34;37.33
41250;BME280;26984;59.928;30.306;2023-04-16T01:41:57;102671.44;;;5.25;37.43
41250;BME280;26984;59.928;30.306;2023-04-16T01:44:24;102669.34;;;5.28;37.07
41250;BME280;26984;59.928;30.306;2023-04-16T01:46:51;102666.34;;;5.22;37.49
41250;BME280;26984;59.928;30.306;2023-04-16T01:49:20;102659.06;;;5.24;37.29
41250;BME280;26984;59.928;30.306;2023-04-16T01:51:48;102664.25;;;5.25;37.65
41250;BME280;26984;59.928;30.306;2023-04-16T01:54:16;102668.91;;;5.23;37.54
41250;BME280;26984;59.928;30.306;2023-04-16T01:56:45;102662.72;;;5.23;37.72
41250;BME280;26984;59.928;30.306;2023-04-16T01:59:13;102656.50;;;5.22;37.37
41250;BME280;26984;59.928;30.306;2023-04-16T02:01:41;102661.16;;;5.20;37.89
41250;BME280;26984;59.928;30.306;2023-04-16T02:04:09;102654.25;;;5.18;38.01
41250;BME280;26984;59.928;30.306;2023-04-16T02:06:37;102656.31;;;5.14;37.70
41250;BME280;26984;59.928;30.306;2023-04-16T02:09:04;102657.91;;;5.17;37.88
41250;BME280;26984;59.928;30.306;2023-04-16T02:11:32;102656.06;;;5.17;38.34
41250;BME280;26984;59.928;30.306;2023-04-16T02:14:01;102646.63;;;5.13;37.90
41250;BME280;26984;59.928;30.306;2023-04-16T02:16:28;102650.25;;;5.12;37.52
41250;BME280;26984;59.928;30.306;2023-04-16T02:19:07;102647.28;;;5.06;38.34
41250;BME280;26984;59.928;30.306;2023-04-16T02:21:35;102645.31;;;5.08;38.37
41250;BME280;26984;59.928;30.306;2023-04-16T02:24:03;102647.41;;;5.04;38.11
41250;BME280;26984;59.928;30.306;2023-04-16T02:26:31;102639.66;;;5.01;38.38
41250;BME280;26984;59.928;30.306;2023-04-16T02:29:06;102651.47;;;4.98;38.32
41250;BME280;26984;59.928;30.306;2023-04-16T02:31:41;102652.88;;;5.02;38.19
41250;BME280;26984;59.928;30.306;2023-04-16T02:34:10;102644.72;;;5.04;38.55
41250;BME280;26984;59.928;30.306;2023-04-16T02:36:38;102640.22;;;5.04;38.10
41250;BME280;26984;59.928;30.306;2023-04-16T02:39:05;102649.63;;;4.99;38.10
41250;BME280;26984;59.928;30.306;2023-04-16T02:41:33;102641.63;;;4.99;38.76
41250;BME280;26984;59.928;30.306;2023-04-16T02:44:00;102639.47;;;4.93;38.43
41250;BME280;26984;59.928;30.306;2023-04-16T02:46:29;102636.34;;;4.88;38.56
41250;BME280;26984;59.928;30.306;2023-04-16T02:48:56;102649.09;;;4.84;38.65
41250;BME280;26984;59.928;30.306;2023-04-16T02:51:24;102650.06;;;4.83;38.52
41250;BME280;26984;59.928;30.306;2023-04-16T02:53:52;102640.81;;;4.87;39.07
41250;BME280;26984;59.928;30.306;2023-04-16T02:56:20;102643.63;;;4.86;38.92
41250;BME280;26984;59.928;30.306;2023-04-16T02:58:47;102638.88;;;4.89;38.54
41250;BME280;26984;59.928;30.306;2023-04-16T03:01:15;102637.50;;;4.95;38.72
41250;BME280;26984;59.928;30.306;2023-04-16T03:03:44;102642.72;;;4.96;38.80
41250;BME280;26984;59.928;30.306;2023-04-16T03:06:11;102631.78;;;4.99;39.09
41250;BME280;26984;59.928;30.306;2023-04-16T03:08:39;102635.34;;;4.89;38.89
41250;BME280;26984;59.928;30.306;2023-04-16T03:11:06;102640.19;;;4.95;38.58
41250;BME280;26984;59.928;30.306;2023-04-16T03:13:34;102636.78;;;4.93;39.15
41250;BME280;26984;59.928;30.306;2023-04-16T03:16:01;102632.75;;;4.98;38.65
41250;BME280;26984;59.928;30.306;2023-04-16T03:18:29;102642.84;;;4.95;38.54
41250;BME280;26984;59.928;30.306;2023-04-16T03:20:58;102638.34;;;4.95;38.81
41250;BME280;26984;59.928;30.306;2023-04-16T03:23:25;102641.03;;;4.95;39.43
41250;BME280;26984;59.928;30.306;2023-04-16T03:25:53;102635.22;;;4.90;39.40
41250;BME280;26984;59.928;30.306;2023-04-16T03:28:20;102637.28;;;4.87;39.61
41250;BME280;26984;59.928;30.306;2023-04-16T03:30:51;102643.88;;;4.83;39.45
41250;BME280;26984;59.928;30.306;2023-04-16T03:33:19;102636.34;;;4.88;38.69
41250;BME280;26984;59.928;30.306;2023-04-16T03:35:53;102631.84;;;4.88;39.11
41250;BME280;26984;59.928;30.306;2023-04-16T03:38:23;102634.38;;;4.90;38.62
41250;BME280;26984;59.928;30.306;2023-04-16T03:40:53;102632.28;;;4.93;38.58
41250;BME280;26984;59.928;30.306;2023-04-16T03:43:21;102630.09;;;4.98;38.73
41250;BME280;26984;59.928;30.306;2023-04-16T03:45:48;102632.47;;;5.01;38.66
41250;BME280;26984;59.928;30.306;2023-04-16T03:48:18;102626.63;;;5.08;39.28
41250;BME280;26984;59.928;30.306;2023-04-16T03:50:46;102626.50;;;5.09;39.22
41250;BME280;26984;59.928;30.306;2023-04-16T03:53:15;102623.41;;;5.14;39.50
41250;BME280;26984;59.928;30.306;2023-04-16T03:55:47;102623.28;;;5.15;39.43
41250;BME280;26984;59.928;30.306;2023-04-16T03:58:17;102631.09;;;5.28;39.48
41250;BME280;26984;59.928;30.306;2023-04-16T04:00:46;102621.25;;;5.28;38.65
41250;BME280;26984;59.928;30.306;2023-04-16T04:03:15;102625.34;;;5.33;39.02
41250;BME280;26984;59.928;30.306;2023-04-16T04:05:44;102618.91;;;5.35;38.76
41250;BME280;26984;59.928;30.306;2023-04-16T04:08:15;102615.81;;;5.40;38.73
41250;BME280;26984;59.928;30.306;2023-04-16T04:10:44;102612.19;;;5.41;38.93
41250;BME280;26984;59.928;30.306;2023-04-16T04:13:14;102614.69;;;5.42;38.39
41250;BME280;26984;59.928;30.306;2023-04-16T04:15:42;102610.34;;;5.41;38.56
41250;BME280;26984;59.928;30.306;2023-04-16T04:18:10;102608.78;;;5.39;38.65
41250;BME280;26984;59.928;30.306;2023-04-16T04:20:38;102612.59;;;5.46;38.94
41250;BME280;26984;59.928;30.306;2023-04-16T04:23:06;102604.84;;;5.43;38.88
41250;BME280;26984;59.928;30.306;2023-04-16T04:25:34;102606.53;;;5.44;38.53
41250;BME280;26984;59.928;30.306;2023-04-16T04:28:03;102602.75;;;5.46;38.61
41250;BME280;26984;59.928;30.306;2023-04-16T04:30:31;102603.34;;;5.50;38.36
41250;BME280;26984;59.928;30.306;2023-04-16T04:33:01;102604.75;;;5.54;38.72
41250;BME280;26984;59.928;30.306;2023-04-16T04:35:28;102603.94;;;5.63;38.34
41250;BME280;26984;59.928;30.306;2023-04-16T04:37:57;102604.38;;;5.68;38.32
41250;BME280;26984;59.928;30.306;2023-04-16T04:40:26;102603.84;;;5.74;38.61
41250;BME280;26984;59.928;30.306;2023-04-16T04:42:53;102596.41;;;5.78;38.24
41250;BME280;26984;59.928;30.306;2023-04-16T04:45:24;102594.56;;;5.79;38.11
41250;BME280;26984;59.928;30.306;2023-04-16T04:47:53;102599.06;;;5.78;37.97
41250;BME280;26984;59.928;30.306;2023-04-16T04:50:20;102602.16;;;5.73;38.28
41250;BME280;26984;59.928;30.306;2023-04-16T04:52:48;102602.72;;;5.77;38.03
41250;BME280;26984;59.928;30.306;2023-04-16T04:55:15;102602.16;;;5.83;38.25
41250;BME280;26984;59.928;30.306;2023-04-16T04:57:43;102603.72;;;5.86;38.19
41250;BME280;26984;59.928;30.306;2023-04-16T05:00:10;102601.78;;;5.88;38.32
41250;BME280;26984;59.928;30.306;2023-04-16T05:02:47;102602.09;;;5.94;38.17
41250;BME280;26984;59.928;30.306;2023-04-16T05:05:15;102604.78;;;5.94;37.87
41250;BME280;26984;59.928;30.306;2023-04-16T05:07:43;102602.38;;;6.01;37.97
41250;BME280;26984;59.928;30.306;2023-04-16T05:10:10;102607.34;;;6.06;37.95
41250;BME280;26984;59.928;30.306;2023-04-16T05:12:38;102602.28;;;6.12;37.49
41250;BME280;26984;59.928;30.306;2023-04-16T05:15:06;102601.00;;;6.26;37.57
41250;BME280;26984;59.928;30.306;2023-04-16T05:17:34;102597.91;;;6.31;37.44
41250;BME280;26984;59.928;30.306;2023-04-16T05:20:03;102596.22;;;6.39;37.58
41250;BME280;26984;59.928;30.306;2023-04-16T05:22:31;102597.50;;;6.45;37.08
41250;BME280;26984;59.928;30.306;2023-04-16T05:24:58;102597.22;;;6.48;37.18
41250;BME280;26984;59.928;30.306;2023-04-16T05:27:26;102594.94;;;6.53;37.06
41250;BME280;26984;59.928;30.306;2023-04-16T05:29:53;102589.44;;;6.64;37.16
41250;BME280;26984;59.928;30.306;2023-04-16T05:32:21;102594.22;;;6.70;36.76
41250;BME280;26984;59.928;30.306;2023-04-16T05:34:49;102594.22;;;6.80;36.89
41250;BME280;26984;59.928;30.306;2023-04-16T05:37:18;102585.75;;;6.85;36.43
41250;BME280;26984;59.928;30.306;2023-04-16T05:39:46;102585.75;;;6.94;36.68
41250;BME280;26984;59.928;30.306;2023-04-16T05:42:13;102588.69;;;7.01;36.27
41250;BME280;26984;59.928;30.306;2023-04-16T05:44:41;102585.13;;;7.10;36.16
41250;BME280;26984;59.928;30.306;2023-04-16T05:47:08;102590.28;;;7.22;36.25
41250;BME280;26984;59.928;30.306;2023-04-16T05:49:36;102584.78;;;7.33;35.79
41250;BME280;26984;59.928;30.306;2023-04-16T05:52:04;102587.81;;;7.48;35.87
41250;BME280;26984;59.928;30.306;2023-04-16T05:54:33;102581.00;;;7.53;35.65
41250;BME280;26984;59.928;30.306;2023-04-16T05:57:01;102583.53;;;7.55;36.16
41250;BME280;26984;59.928;30.306;2023-04-16T05:59:28;102581.22;;;7.70;35.98
41250;BME280;26984;59.928;30.306;2023-04-16T06:01:56;102581.00;;;7.81;35.27
41250;BME280;26984;59.928;30.306;2023-04-16T06:04:23;102585.34;;;7.82;35.19
41250;BME280;26984;59.928;30.306;2023-04-16T06:06:51;102579.78;;;7.93;34.54
41250;BME280;26984;59.928;30.306;2023-04-16T06:09:18;102584.94;;;8.04;35.41
41250;BME280;26984;59.928;30.306;2023-04-16T06:11:47;102579.19;;;8.17;34.98
41250;BME280;26984;59.928;30.306;2023-04-16T06:14:15;102581.50;;;8.30;34.82
41250;BME280;26984;59.928;30.306;2023-04-16T06:16:42;102573.97;;;8.33;34.42
41250;BME280;26984;59.928;30.306;2023-04-16T06:19:10;102579.84;;;8.47;34.70
41250;BME280;26984;59.928;30.306;2023-04-16T06:21:38;102565.63;;;8.54;34.74
41250;BME280;26984;59.928;30.306;2023-04-16T06:24:05;102575.81;;;8.69;34.25
41250;BME280;26984;59.928;30.306;2023-04-16T06:26:33;102573.72;;;8.80;33.78
41250;BME280;26984;59.928;30.306;2023-04-16T06:29:02;102562.34;;;8.86;33.59
41250;BME280;26984;59.928;30.306;2023-04-16T06:31:29;102567.59;;;8.96;33.84
41250;BME280;26984;59.928;30.306;2023-04-16T06:33:57;102565.13;;;9.03;33.68
41250;BME280;26984;59.928;30.306;2023-04-16T06:36:24;102567.34;;;9.07;33.61
41250;BME280;26984;59.928;30.306;2023-04-16T06:38:54;102567.66;;;9.04;33.27
41250;BME280;26984;59.928;30.306;2023-04-16T06:41:21;102567.69;;;9.13;33.66
41250;BME280;26984;59.928;30.306;2023-04-16T06:43:50;102564.84;;;9.14;33.35
41250;BME280;26984;59.928;30.306;2023-04-16T06:46:20;102568.56;;;9.21;33.46
41250;BME280;26984;59.928;30.306;2023-04-16T06:48:47;102563.59;;;9.34;33.19
41250;BME280;26984;59.928;30.306;2023-04-16T06:51:15;102562.97;;;9.41;33.28
41250;BME280;26984;59.928;30.306;2023-04-16T06:53:42;102553.56;;;9.45;32.86
41250;BME280;26984;59.928;30.306;2023-04-16T06:56:10;102561.16;;;9.49;32.78
41250;BME280;26984;59.928;30.306;2023-04-16T06:58:37;102557.63;;;9.49;33.11
41250;BME280;26984;59.928;30.306;2023-04-16T07:01:05;102551.25;;;9.50;33.04
41250;BME280;26984;59.928;30.306;2023-04-16T07:03:34;102556.47;;;9.51;33.04
41250;BME280;26984;59.928;30.306;2023-04-16T07:06:01;102553.78;;;9.59;32.88
41250;BME280;26984;59.928;30.306;2023-04-16T07:08:29;102553.13;;;9.57;33.01
41250;BME280;26984;59.928;30.306;2023-04-16T07:10:57;102555.00;;;9.65;33.10
41250;BME280;26984;59.928;30.306;2023-04-16T07:13:24;102552.31;;;9.73;32.88
41250;BME280;26984;59.928;30.306;2023-04-16T07:15:52;102547.47;;;9.85;32.60
41250;BME280;26984;59.928;30.306;2023-04-16T07:18:20;102557.44;;;9.93;32.66
41250;BME280;26984;59.928;30.306;2023-04-16T07:20:49;102558.47;;;10.08;32.87
41250;BME280;26984;59.928;30.306;2023-04-16T07:23:16;102541.13;;;10.19;32.79
41250;BME280;26984;59.928;30.306;2023-04-16T07:25:43;102549.25;;;10.35;32.29
41250;BME280;26984;59.928;30.306;2023-04-16T07:28:11;102536.63;;;10.52;31.77
41250;BME280;26984;59.928;30.306;2023-04-16T07:30:41;102537.28;;;10.62;31.65
41250;BME280;26984;59.928;30.306;2023-04-16T07:33:09;102538.75;;;10.81;31.72
41250;BME280;26984;59.928;30.306;2023-04-16T07:35:37;102537.91;;;10.97;31.41
41250;BME280;26984;59.928;30.306;2023-04-16T07:38:06;102537.53;;;11.08;31.49
41250;BME280;26984;59.928;30.306;2023-04-16T07:40:34;102543.22;;;11.13;31.21
41250;BME280;26984;59.928;30.306;2023-04-16T07:43:01;102546.31;;;11.02;31.12
41250;BME280;26984;59.928;30.306;2023-04-16T07:45:29;102539.22;;;11.01;31.14
41250;BME280;26984;59.928;30.306;2023-04-16T07:47:56;102533.16;;;11.07;30.93
41250;BME280;26984;59.928;30.306;2023-04-16T07:50:24;102524.88;;;11.09;30.54
41250;BME280;26984;59.928;30.306;2023-04-16T07:52:51;102531.13;;;11.09;30.48
41250;BME280;26984;59.928;30.306;2023-04-16T07:55:21;102536.50;;;11.17;30.75
41250;BME280;26984;59.928;30.306;2023-04-16T07:57:48;102536.59;;;11.32;30.09
41250;BME280;26984;59.928;30.306;2023-04-16T08:00:16;102533.38;;;11.37;30.04
41250;BME280;26984;59.928;30.306;2023-04-16T08:02:43;102537.91;;;11.44;30.36
41250;BME280;26984;59.928;30.306;2023-04-16T08:05:11;102533.63;;;11.58;29.97
41250;BME280;26984;59.928;30.306;2023-04-16T08:07:38;102532.22;;;11.70;29.60
41250;BME280;26984;59.928;30.306;2023-04-16T08:10:06;102531.69;;;11.75;29.43
41250;BME280;26984;59.928;30.306;2023-04-16T08:12:35;102533.31;;;11.84;29.43
41250;BME280;26984;59.928;30.306;2023-04-16T08:15:03;102518.13;;;11.83;29.11
41250;BME280;26984;59.928;30.306;2023-04-16T08:17:31;102522.72;;;12.06;28.40
41250;BME280;26984;59.928;30.306;2023-04-16T08:19:59;102523.78;;;12.19;28.32
41250;BME280;26984;59.928;30.306;2023-04-16T08:22:26;102526.84;;;12.39;28.08
41250;BME280;26984;59.928;30.306;2023-04-16T08:24:54;102524.47;;;12.59;28.74
41250;BME280;26984;59.928;30.306;2023-04-16T08:27:21;102526.66;;;12.93;27.46
41250;BME280;26984;59.928;30.306;2023-04-16T08:29:50;102523.66;;;13.18;27.19
41250;BME280;26984;59.928;30.306;2023-04-16T08:32:17;102523.06;;;13.31;26.09
41250;BME280;26984;59.928;30.306;2023-04-16T08:34:45;102518.63;;;13.45;26.71
41250;BME280;26984;59.928;30.306;2023-04-16T08:37:12;102526.81;;;13.66;25.95
41250;BME280;26984;59.928;30.306;2023-04-16T08:39:40;102510.69;;;13.79;25.41
41250;BME280;26984;59.928;30.306;2023-04-16T08:42:10;102520.19;;;13.90;25.16
41250;BME280;26984;59.928;30.306;2023-04-16T08:44:40;102522.34;;;13.95;24.75
41250;BME280;26984;59.928;30.306;2023-04-16T08:47:11;102515.28;;;13.79;25.00
41250;BME280;26984;59.928;30.306;2023-04-16T08:49:42;102517.28;;;13.70;25.24
41250;BME280;26984;59.928;30.306;2023-04-16T08:52:10;102517.19;;;13.63;25.42
41250;BME280;26984;59.928;30.306;2023-04-16T08:54:42;102515.97;;;13.66;25.12
41250;BME280;26984;59.928;30.306;2023-04-16T08:57:12;102523.03;;;13.82;25.08
41250;BME280;26984;59.928;30.306;2023-04-16T08:59:44;102521.16;;;13.82;24.84
41250;BME280;26984;59.928;30.306;2023-04-16T09:02:13;102512.72;;;13.92;24.70
41250;BME280;26984;59.928;30.306;2023-04-16T09:04:41;102512.78;;;13.99;24.25
41250;BME280;26984;59.928;30.306;2023-04-16T09:07:09;102513.88;;;14.04;23.93
41250;BME280;26984;59.928;30.306;2023-04-16T09:09:37;102512.66;;;14.07;23.85
41250;BME280;26984;59.928;30.306;2023-04-16T09:12:05;102501.03;;;14.13;24.17
41250;BME280;26984;59.928;30.306;2023-04-16T09:14:33;102505.81;;;14.11;24.22
41250;BME280;26984;59.928;30.306;2023-04-16T09:17:01;102505.94;;;14.24;24.29
41250;BME280;26984;59.928;30.306;2023-04-16T09:19:30;102498.03;;;14.29;24.13
41250;BME280;26984;59.928;30.306;2023-04-16T09:21:57;102500.66;;;14.44;23.99
41250;BME280;26984;59.928;30.306;2023-04-16T09:24:25;102502.53;;;14.65;23.95
41250;BME280;26984;59.928;30.306;2023-04-16T09:26:53;102497.16;;;14.72;23.31
41250;BME280;26984;59.928;30.306;2023-04-16T09:29:32;102495.31;;;14.79;23.31
41250;BME280;26984;59.928;30.306;2023-04-16T09:32:02;102498.28;;;14.84;23.22
41250;BME280;26984;59.928;30.306;2023-04-16T09:34:32;102498.72;;;14.88;23.12
41250;BME280;26984;59.928;30.306;2023-04-16T09:37:15;102491.31;;;14.75;23.48
41250;BME280;26984;59.928;30.306;2023-04-16T09:39:43;102490.66;;;14.66;23.33
41250;BME280;26984;59.928;30.306;2023-04-16T09:42:10;102489.06;;;14.50;23.54
41250;BME280;26984;59.928;30.306;2023-04-16T09:44:38;102499.97;;;14.57;24.00
41250;BME280;26984;59.928;30.306;2023-04-16T09:47:06;102496.47;;;14.63;23.89
41250;BME280;26984;59.928;30.306;2023-04-16T09:49:36;102492.56;;;14.72;23.72
41250;BME280;26984;59.928;30.306;2023-04-16T09:52:08;102496.81;;;14.81;24.08
41250;BME280;26984;59.928;30.306;2023-04-16T09:54:39;102497.47;;;14.90;24.31
41250;BME280;26984;59.928;30.306;2023-04-16T09:57:11;102492.53;;;15.00;24.23
41250;BME280;26984;59.928;30.306;2023-04-16T09:59:39;102498.47;;;15.17;23.62
41250;BME280;26984;59.928;30.306;2023-04-16T10:02:07;102498.97;;;15.34;23.86
41250;BME280;26984;59.928;30.306;2023-04-16T10:04:45;102495.66;;;15.45;23.28
41250;BME280;26984;59.928;30.306;2023-04-16T10:07:13;102497.72;;;15.43;23.13
41250;BME280;26984;59.928;30.306;2023-04-16T10:09:41;102494.41;;;15.48;22.86
41250;BME280;26984;59.928;30.306;2023-04-16T10:12:08;102495.47;;;15.53;22.98
41250;BME280;26984;59.928;30.306;2023-04-16T10:14:37;102496.38;;;15.67;21.81
41250;BME280;26984;59.928;30.306;2023-04-16T10:17:05;102496.41;;;15.80;22.13
41250;BME280;26984;59.928;30.306;2023-04-16T10:19:33;102485.75;;;15.86;21.83
41250;BME280;26984;59.928;30.306;2023-04-16T10:22:02;102489.09;;;15.81;22.19
41250;BME280;26984;59.928;30.306;2023-04-16T10:24:31;102488.69;;;15.77;22.50
41250;BME280;26984;59.928;30.306;2023-04-16T10:26:58;102497.47;;;15.79;22.21
41250;BME280;26984;59.928;30.306;2023-04-16T10:29:26;102495.28;;;15.62;22.61
41250;BME280;26984;59.928;30.306;2023-04-16T10:31:55;102495.44;;;15.47;22.76
41250;BME280;26984;59.928;30.306;2023-04-16T10:34:23;102508.19;;;15.46;22.83
41250;BME280;26984;59.928;30.306;2023-04-16T10:36:51;102497.03;;;15.28;23.09
41250;BME280;26984;59.928;30.306;2023-04-16T10:39:21;102499.09;;;15.19;23.52
41250;BME280;26984;59.928;30.306;2023-04-16T10:41:48;102492.81;;;15.19;23.23
41250;BME280;26984;59.928;30.306;2023-04-16T10:44:16;102486.34;;;15.13;23.07
41250;BME280;26984;59.928;30.306;2023-04-16T10:46:45;102491.28;;;15.03;23.17
41250;BME280;26984;59.928;30.306;2023-04-16T10:49:14;102486.09;;;15.08;23.28
41250;BME280;26984;59.928;30.306;2023-04-16T10:51:43;102484.81;;;15.04;23.42
41250;BME280;26984;59.928;30.306;2023-04-16T10:54:20;102489.44;;;15.10;23.43
41250;BME280;26984;59.928;30.306;2023-04-16T10:56:49;102477.63;;;14.90;23.57
41250;BME280;26984;59.928;30.306;2023-04-16T10:59:17;102475.56;;;14.92;23.90
41250;BME280;26984;59.928;30.306;2023-04-16T11:01:45;102473.47;;;14.94;23.57
41250;BME280;26984;59.928;30.306;2023-04-16T11:04:25;102478.28;;;14.92;23.68
41250;BME280;26984;59.928;30.306;2023-04-16T11:07:00;102477.47;;;14.91;23.76
41250;BME280;26984;59.928;30.306;2023-04-16T11:09:43;102475.19;;;14.95;23.55
41250;BME280;26984;59.928;30.306;2023-04-16T11:12:12;102477.63;;;14.90;23.79
41250;BME280;26984;59.928;30.306;2023-04-16T11:14:39;102484.13;;;14.89;23.95
41250;BME280;26984;59.928;30.306;2023-04-16T11:17:07;102475.34;;;14.93;23.56
41250;BME280;26984;59.928;30.306;2023-04-16T11:19:35;102476.84;;;14.96;24.00
41250;BME280;26984;59.928;30.306;2023-04-16T11:22:03;102478.50;;;14.97;23.64
41250;BME280;26984;59.928;30.306;2023-04-16T11:24:30;102475.34;;;14.93;23.58
41250;BME280;26984;59.928;30.306;2023-04-16T11:26:59;102473.88;;;14.84;23.74
41250;BME280;26984;59.928;30.306;2023-04-16T11:29:26;102472.03;;;14.91;23.78
41250;BME280;26984;59.928;30.306;2023-04-16T11:31:54;102469.94;;;14.93;23.28
41250;BME280;26984;59.928;30.306;2023-04-16T11:34:21;102468.50;;;14.97;22.91
41250;BME280;26984;59.928;30.306;2023-04-16T11:36:50;102467.25;;;15.00;23.29
41250;BME280;26984;59.928;30.306;2023-04-16T11:39:17;102461.88;;;15.06;22.84
41250;BME280;26984;59.928;30.306;2023-04-16T11:41:45;102454.56;;;15.07;22.84
41250;BME280;26984;59.928;30.306;2023-04-16T11:44:18;102464.06;;;15.31;22.51
41250;BME280;26984;59.928;30.306;2023-04-16T11:46:46;102455.53;;;15.41;22.74
41250;BME280;26984;59.928;30.306;2023-04-16T11:49:13;102454.09;;;15.51;22.02
41250;BME280;26984;59.928;30.306;2023-04-16T11:51:42;102458.91;;;15.49;22.46
41250;BME280;26984;59.928;30.306;2023-04-16T11:54:17;102449.28;;;15.47;22.42
41250;BME280;26984;59.928;30.306;2023-04-16T11:56:45;102456.41;;;15.48;22.61
41250;BME280;26984;59.928;30.306;2023-04-16T11:59:13;102449.94;;;15.62;22.49
41250;BME280;26984;59.928;30.306;2023-04-16T12:01:44;102446.66;;;15.73;22.00
41250;BME280;26984;59.928;30.306;2023-04-16T12:04:12;102445.59;;;15.74;22.19
41250;BME280;26984;59.928;30.306;2023-04-16T12:06:39;102445.00;;;15.86;22.52
41250;BME280;26984;59.928;30.306;2023-04-16T12:11:52;102439.59;;;16.19;21.65
41250;BME280;26984;59.928;30.306;2023-04-16T12:14:20;102440.84;;;16.16;21.75
41250;BME280;26984;59.928;30.306;2023-04-16T12:16:49;102435.19;;;16.04;21.72
41250;BME280;26984;59.928;30.306;2023-04-16T12:19:16;102435.16;;;16.11;21.84
41250;BME280;26984;59.928;30.306;2023-04-16T12:21:44;102426.19;;;16.11;21.54
41250;BME280;26984;59.928;30.306;2023-04-16T12:24:12;102440.84;;;16.10;21.78
41250;BME280;26984;59.928;30.306;2023-04-16T12:26:40;102432.47;;;16.04;21.43
41250;BME280;26984;59.928;30.306;2023-04-16T12:29:15;102435.19;;;16.04;21.68
41250;BME280;26984;59.928;30.306;2023-04-16T12:31:42;102429.97;;;16.10;21.41
41250;BME280;26984;59.928;30.306;2023-04-16T12:34:11;102424.94;;;16.07;21.41
41250;BME280;26984;59.928;30.306;2023-04-16T12:36:40;102431.84;;;16.16;21.62
41250;BME280;26984;59.928;30.306;2023-04-16T12:39:07;102424.94;;;16.26;20.67
41250;BME280;26984;59.928;30.306;2023-04-16T12:41:36;102422.00;;;16.28;20.84
41250;BME280;26984;59.928;30.306;2023-04-16T12:44:04;102421.78;;;16.30;21.22
41250;BME280;26984;59.928;30.306;2023-04-16T12:46:34;102415.72;;;16.41;20.89
41250;BME280;26984;59.928;30.306;2023-04-16T12:49:02;102410.88;;;16.49;21.33
41250;BME280;26984;59.928;30.306;2023-04-16T12:51:31;102415.03;;;16.59;21.12
41250;BME280;26984;59.928;30.306;2023-04-16T12:53:59;102413.34;;;16.64;21.01